Time;durP1;ratioP1;P1;durP2;ratioP2;P2;SDS_P1;SDS_P2;PMS_P1;PMS_P2;Temp;Humidity;BMP_temperature;BMP_pressure;BME280_temperature;BME280_humidity;BME280_pressure;Samples;Min_cycle;Max_cycle;Signal;HPM_P1;HPM_P2
2023/11/05 00:01:01;;;;;;;11.60;11.00;;;10.50;1.00;;;;;;4866410;29;20933;-39
2023/11/05 00:03:28;;;;;;;12.07;11.40;;;10.40;1.00;;;;;;4869751;29;20438;-40
2023/11/05 00:05:53;;;;;;;11.23;10.63;;;10.40;1.00;;;;;;4853121;29;20437;-39
2023/11/05 00:08:19;;;;;;;11.07;10.57;;;10.40;1.00;;;;;;4852992;29;20476;-40
2023/11/05 00:10:45;;;;;;;11.50;10.80;;;10.50;1.00;;;;;;4852330;29;20219;-40
2023/11/05 00:13:11;;;;;;;11.53;10.93;;;10.50;1.00;;;;;;4869267;29;20299;-39
2023/11/05 00:15:38;;;;;;;61.47;40.33;;;10.50;1.00;;;;;;4870341;29;20188;-39
2023/11/05 00:18:04;;;;;;;36.27;29.93;;;10.40;1.00;;;;;;4852767;29;20432;-38
2023/11/05 00:20:29;;;;;;;12.20;11.50;;;10.40;1.00;;;;;;4869039;29;20446;-39
2023/11/05 00:22:56;;;;;;;11.10;10.60;;;10.50;1.00;;;;;;4867731;29;20207;-39
2023/11/05 00:25:22;;;;;;;12.73;11.93;;;10.40;1.00;;;;;;4869427;29;20370;-39
2023/11/05 00:27:48;;;;;;;12.03;11.43;;;10.40;1.00;;;;;;4853096;29;20409;-40
2023/11/05 00:30:13;;;;;;;12.13;11.53;;;10.40;1.00;;;;;;4852421;29;20456;-42
2023/11/05 00:32:39;;;;;;;11.93;11.33;;;10.40;1.00;;;;;;4869613;29;21068;-39
2023/11/05 00:35:05;;;;;;;12.20;11.60;;;10.40;1.00;;;;;;4869430;29;20649;-39
2023/11/05 00:37:30;;;;;;;12.17;11.47;;;10.40;1.00;;;;;;4868025;29;20680;-40
2023/11/05 00:39:56;;;;;;;11.10;10.60;;;10.40;1.00;;;;;;4869446;29;20420;-40
2023/11/05 00:42:21;;;;;;;11.80;11.20;;;10.40;1.00;;;;;;4869584;29;20671;-41
2023/11/05 00:44:47;;;;;;;12.00;11.40;;;10.40;1.00;;;;;;4869426;29;20250;-39
2023/11/05 00:47:13;;;;;;;11.43;10.93;;;10.40;1.00;;;;;;4868823;29;20643;-39
2023/11/05 00:49:38;;;;;;;11.43;10.93;;;10.50;1.00;;;;;;4869274;29;20196;-39
2023/11/05 00:52:04;;;;;;;11.43;10.93;;;10.50;1.00;;;;;;4868047;29;20199;-40
2023/11/05 00:54:29;;;;;;;11.60;11.00;;;10.50;1.00;;;;;;4868671;29;20294;-40
2023/11/05 00:56:55;;;;;;;11.40;10.90;;;10.40;1.00;;;;;;4852553;29;20634;-39
2023/11/05 00:59:21;;;;;;;11.60;10.90;;;10.40;1.00;;;;;;4868978;29;20236;-39
2023/11/05 01:01:47;;;;;;;11.90;11.30;;;10.40;1.00;;;;;;4852131;29;20275;-42
2023/11/05 01:04:12;;;;;;;11.97;11.37;;;10.40;1.00;;;;;;4868674;29;20468;-45
2023/11/05 01:06:38;;;;;;;10.70;10.20;;;10.40;1.00;;;;;;4851430;29;21251;-46
2023/11/05 01:09:05;;;;;;;11.60;11.10;;;10.40;1.00;;;;;;4852680;29;20196;-48
2023/11/05 01:11:31;;;;;;;11.93;11.33;;;10.40;1.00;;;;;;4868837;29;20192;-50
2023/11/05 01:13:57;;;;;;;12.43;11.73;;;10.40;1.00;;;;;;4868448;29;20524;-51
2023/11/05 01:16:23;;;;;;;12.40;11.70;;;10.40;1.00;;;;;;4868402;29;20448;-50
2023/11/05 01:18:49;;;;;;;12.10;11.43;;;10.50;1.00;;;;;;4867169;29;21198;-49
2023/11/05 01:21:14;;;;;;;11.90;11.37;;;10.40;1.00;;;;;;4868085;29;20441;-48
2023/11/05 01:23:41;;;;;;;11.07;10.57;;;10.50;1.00;;;;;;4852021;29;20873;-51
2023/11/05 01:26:07;;;;;;;11.30;10.60;;;10.50;1.00;;;;;;4851700;29;20200;-51
2023/11/05 01:28:32;;;;;;;11.43;10.83;;;10.40;1.00;;;;;;4868553;29;20431;-45
2023/11/05 01:30:58;;;;;;;11.93;11.30;;;10.50;1.00;;;;;;4851219;29;20300;-49
2023/11/05 01:33:24;;;;;;;11.10;10.60;;;10.50;1.00;;;;;;4836242;29;20212;-50
2023/11/05 01:35:49;;;;;;;12.10;11.43;;;10.50;1.00;;;;;;4851262;29;20203;-50
2023/11/05 01:38:15;;;;;;;11.80;11.20;;;10.50;1.00;;;;;;4868742;29;20203;-52
2023/11/05 01:40:40;;;;;;;11.70;11.20;;;10.50;1.00;;;;;;4867794;29;20211;-48
2023/11/05 01:43:06;;;;;;;11.93;11.33;;;10.50;1.00;;;;;;4868458;29;20859;-48
2023/11/05 01:45:32;;;;;;;12.00;11.30;;;10.50;1.00;;;;;;4850976;29;20196;-52
2023/11/05 01:47:57;;;;;;;11.57;11.07;;;10.50;1.00;;;;;;4868390;29;20200;-52
2023/11/05 01:50:23;;;;;;;11.13;10.63;;;10.50;1.00;;;;;;4867193;29;20542;-47
2023/11/05 01:52:54;;;;;;;11.80;11.20;;;10.50;1.00;;;;;;4867440;29;21009;-50
2023/11/05 01:55:23;;;;;;;11.10;10.50;;;10.60;1.00;;;;;;4868546;29;20575;-53
2023/11/05 01:57:50;;;;;;;11.60;11.00;;;10.60;1.00;;;;;;4867574;29;20432;-44
2023/11/05 02:00:16;;;;;;;11.73;11.23;;;10.60;1.00;;;;;;4867797;29;20495;-53
2023/11/05 02:02:42;;;;;;;10.77;10.27;;;10.60;1.00;;;;;;4868370;29;20426;-50
2023/11/05 02:05:09;;;;;;;11.80;11.20;;;10.70;1.00;;;;;;4867616;29;20527;-49
2023/11/05 02:07:35;;;;;;;11.67;11.17;;;10.80;1.00;;;;;;4867227;29;20438;-50
2023/11/05 02:10:02;;;;;;;11.70;11.20;;;10.70;1.00;;;;;;4868038;29;20428;-49
2023/11/05 02:12:28;;;;;;;11.50;10.90;;;10.70;1.00;;;;;;4867853;29;20424;-51
2023/11/05 02:14:54;;;;;;;11.90;11.30;;;10.70;1.00;;;;;;4867969;29;20423;-48
2023/11/05 02:17:21;;;;;;;12.03;11.30;;;10.70;1.00;;;;;;4851217;29;20940;-51
2023/11/05 02:19:47;;;;;;;11.50;10.90;;;10.80;1.00;;;;;;4866128;29;20440;-44
2023/11/05 02:22:15;;;;;;;12.00;11.40;;;10.70;1.00;;;;;;4865627;29;21387;-46
2023/11/05 02:24:47;;;;;;;11.03;10.50;;;10.70;1.00;;;;;;4867029;29;20416;-49
2023/11/05 02:27:13;;;;;;;11.30;10.67;;;10.70;1.00;;;;;;4867420;29;20424;-49
2023/11/05 02:29:39;;;;;;;11.10;10.60;;;10.60;1.00;;;;;;4867293;29;20491;-48
2023/11/05 02:32:06;;;;;;;11.07;10.50;;;10.60;1.00;;;;;;4867239;29;20440;-47
2023/11/05 02:34:32;;;;;;;11.37;10.77;;;10.60;1.00;;;;;;4867247;29;20476;-49
2023/11/05 02:36:58;;;;;;;11.57;10.97;;;10.50;1.00;;;;;;4867182;29;20480;-50
2023/11/05 02:39:25;;;;;;;10.83;10.33;;;10.50;1.00;;;;;;4866796;29;20472;-53
2023/11/05 02:41:52;;;;;;;11.90;11.30;;;10.50;1.00;;;;;;4867486;29;20172;-50
2023/11/05 02:44:18;;;;;;;11.63;11.03;;;10.50;1.00;;;;;;4867658;29;20852;-47
2023/11/05 02:46:45;;;;;;;12.00;11.40;;;10.50;1.00;;;;;;4866347;29;20424;-49
2023/11/05 02:49:12;;;;;;;11.57;10.97;;;10.50;1.00;;;;;;4865749;29;20491;-45
2023/11/05 02:51:38;;;;;;;11.70;11.20;;;10.60;1.00;;;;;;4850897;29;20451;-54
2023/11/05 02:54:05;;;;;;;11.63;11.03;;;10.60;1.00;;;;;;4867208;29;20471;-46
2023/11/05 02:56:30;;;;;;;11.40;10.87;;;10.60;1.00;;;;;;4867239;29;20247;-51
2023/11/05 02:58:56;;;;;;;11.40;10.90;;;10.60;1.00;;;;;;4867228;29;20432;-48
2023/11/05 03:01:27;;;;;;;11.70;11.00;;;10.70;1.00;;;;;;4867018;29;20184;-52
2023/11/05 03:03:53;;;;;;;11.03;10.60;;;10.70;1.00;;;;;;4866184;29;20218;-49
2023/11/05 03:06:20;;;;;;;11.00;10.40;;;10.60;1.00;;;;;;4867404;29;20527;-39
2023/11/05 03:09:55;;;;;;;11.77;11.17;;;10.70;1.00;;;;;;4866649;29;20431;-39
2023/11/05 03:12:03;;;;;;;11.37;10.87;;;10.60;1.00;;;;;;4857111;29;20832;-39
2023/11/05 03:14:28;;;;;;;11.60;11.10;;;10.60;1.00;;;;;;4866739;29;20519;-38
2023/11/05 03:16:54;;;;;;;11.03;10.57;;;10.60;1.00;;;;;;4867144;29;20192;-39
2023/11/05 03:19:20;;;;;;;11.27;10.70;;;10.60;1.00;;;;;;4865723;29;20674;-39
2023/11/05 03:21:45;;;;;;;10.80;10.23;;;10.60;1.00;;;;;;4866172;29;20504;-39
2023/11/05 03:24:11;;;;;;;11.17;10.67;;;10.60;1.00;;;;;;4867095;29;20237;-41
2023/11/05 03:26:36;;;;;;;11.60;10.90;;;10.50;1.00;;;;;;4866908;29;20192;-39
2023/11/05 03:29:03;;;;;;;11.53;11.03;;;10.60;1.00;;;;;;4866847;29;20588;-49
2023/11/05 03:31:28;;;;;;;10.97;10.47;;;10.60;1.00;;;;;;4866029;29;20195;-48
2023/11/05 03:33:54;;;;;;;11.27;10.70;;;10.50;1.00;;;;;;4866540;29;20468;-49
2023/11/05 03:36:19;;;;;;;11.53;10.93;;;10.50;1.00;;;;;;4868614;29;20192;-48
2023/11/05 03:38:46;;;;;;;10.77;10.27;;;10.50;1.00;;;;;;4870546;29;20682;-52
2023/11/05 03:41:11;;;;;;;11.27;10.77;;;10.50;1.00;;;;;;4869492;29;20801;-47
2023/11/05 03:43:37;;;;;;;11.20;10.70;;;10.50;1.00;;;;;;4869512;29;20444;-51
2023/11/05 03:46:03;;;;;;;11.10;10.53;;;10.50;1.00;;;;;;4870671;29;20202;-48
2023/11/05 03:48:28;;;;;;;10.83;10.30;;;10.50;6.60;;;;;;4869038;29;20188;-51
2023/11/05 03:50:54;;;;;;;11.20;10.60;;;10.40;41.00;;;;;;4870318;29;20200;-47
2023/11/05 03:53:20;;;;;;;10.87;10.30;;;10.40;98.70;;;;;;4870436;29;20539;-52
2023/11/05 03:55:45;;;;;;;10.87;10.37;;;10.30;99.90;;;;;;4869966;29;20191;-50
2023/11/05 03:58:11;;;;;;;11.07;10.57;;;10.30;99.90;;;;;;4870196;29;20990;-50
2023/11/05 04:00:36;;;;;;;10.80;10.30;;;10.20;99.90;;;;;;4870032;29;20243;-48
2023/11/05 04:03:02;;;;;;;11.10;10.60;;;10.10;99.90;;;;;;4870369;29;20639;-47
2023/11/05 04:05:28;;;;;;;10.70;10.10;;;10.10;1.00;;;;;;4870084;29;20659;-50
2023/11/05 04:07:53;;;;;;;11.27;10.67;;;10.00;1.00;;;;;;4869590;29;20231;-47
2023/11/05 04:10:19;;;;;;;11.23;10.63;;;9.90;1.00;;;;;;4870193;29;20183;-49
2023/11/05 04:12:45;;;;;;;11.50;10.90;;;9.90;7.70;;;;;;4869578;29;20207;-49
2023/11/05 04:15:11;;;;;;;11.00;10.30;;;9.90;99.90;;;;;;4870355;29;21269;-49
2023/11/05 04:17:36;;;;;;;11.30;10.70;;;9.80;99.90;;;;;;4852075;29;20202;-50
2023/11/05 04:20:04;;;;;;;10.73;10.23;;;9.70;99.90;;;;;;4852537;29;20444;-49
2023/11/05 04:22:30;;;;;;;10.70;10.20;;;9.70;1.00;;;;;;4869305;29;20220;-48
2023/11/05 04:24:55;;;;;;;10.90;10.40;;;9.70;1.00;;;;;;4869879;29;20527;-48
2023/11/05 04:27:21;;;;;;;10.70;10.20;;;9.60;99.90;;;;;;4869892;29;20188;-50
2023/11/05 04:29:47;;;;;;;10.87;10.37;;;9.50;99.90;;;;;;4869607;29;20219;-51
2023/11/05 04:32:14;;;;;;;11.33;10.83;;;9.50;16.20;;;;;;4868658;29;20479;-49
2023/11/05 04:34:40;;;;;;;11.03;10.43;;;9.50;78.10;;;;;;4869276;29;20211;-51
2023/11/05 04:37:06;;;;;;;10.90;10.40;;;9.40;1.00;;;;;;4869417;29;20452;-50
2023/11/05 04:39:32;;;;;;;10.60;10.10;;;9.40;1.00;;;;;;4868872;29;20915;-50
2023/11/05 04:41:58;;;;;;;11.20;10.70;;;9.40;99.40;;;;;;4869766;29;20191;-49
2023/11/05 04:44:24;;;;;;;10.97;10.47;;;9.40;99.90;;;;;;4868691;29;20452;-46
2023/11/05 04:46:49;;;;;;;10.20;9.70;;;9.40;99.90;;;;;;4868012;29;20199;-48
2023/11/05 04:49:15;;;;;;;10.57;10.07;;;9.30;1.00;;;;;;4869026;29;20463;-46
2023/11/05 04:51:42;;;;;;;11.03;10.53;;;9.30;27.70;;;;;;4869472;29;20294;-53
2023/11/05 04:54:08;;;;;;;11.13;10.50;;;9.30;99.90;;;;;;4869519;29;20230;-49
2023/11/05 04:56:34;;;;;;;11.23;10.73;;;9.20;99.90;;;;;;4869680;29;21283;-49
2023/11/05 04:59:00;;;;;;;10.60;10.10;;;9.20;35.40;;;;;;4868525;29;20939;-44
2023/11/05 05:01:26;;;;;;;11.30;10.70;;;9.20;1.00;;;;;;4868585;29;20451;-49
2023/11/05 05:03:52;;;;;;;11.10;10.50;;;9.20;10.00;;;;;;4869140;29;20214;-49
2023/11/05 05:06:18;;;;;;;10.30;9.80;;;9.20;99.90;;;;;;4869257;29;20920;-48
2023/11/05 05:08:45;;;;;;;10.80;10.30;;;9.10;99.90;;;;;;4869312;29;20452;-51
2023/11/05 05:11:11;;;;;;;10.13;9.63;;;9.10;1.00;;;;;;4869073;29;21274;-45
2023/11/05 05:13:37;;;;;;;11.20;10.70;;;9.00;99.90;;;;;;4868972;29;20483;-52
2023/11/05 05:16:06;;;;;;;11.30;10.70;;;9.00;1.00;;;;;;4867146;29;20925;-49
2023/11/05 05:18:31;;;;;;;10.80;10.30;;;8.90;99.90;;;;;;4868343;29;20210;-52
2023/11/05 05:20:57;;;;;;;10.90;10.40;;;8.90;99.90;;;;;;4868672;29;20440;-51
2023/11/05 05:23:22;;;;;;;10.87;10.37;;;8.90;1.00;;;;;;4867835;29;20191;-44
2023/11/05 05:25:48;;;;;;;11.10;10.40;;;8.80;1.00;;;;;;4868973;29;20188;-40
2023/11/05 05:28:14;;;;;;;11.10;10.60;;;8.90;1.00;;;;;;4868772;29;20204;-40
2023/11/05 05:30:39;;;;;;;11.10;10.60;;;8.80;34.30;;;;;;4868587;29;20264;-39
2023/11/05 05:33:06;;;;;;;11.60;11.03;;;8.80;99.90;;;;;;4868511;29;20722;-39
2023/11/05 05:35:32;;;;;;;11.30;10.80;;;8.80;99.90;;;;;;4867365;29;20455;-39
2023/11/05 05:37:58;;;;;;;11.40;10.90;;;8.80;99.90;;;;;;4850471;29;20429;-38
2023/11/05 05:40:23;;;;;;;11.20;10.60;;;8.70;99.90;;;;;;4868425;29;20230;-39
2023/11/05 05:42:49;;;;;;;11.30;10.70;;;8.70;99.90;;;;;;4868614;29;20196;-40
2023/11/05 05:45:14;;;;;;;12.00;11.23;;;8.70;99.90;;;;;;4868291;29;20275;-41
2023/11/05 05:47:41;;;;;;;11.63;11.03;;;8.70;99.90;;;;;;4850495;29;20227;-39
2023/11/05 05:50:07;;;;;;;10.83;10.33;;;8.70;99.90;;;;;;4867647;29;20268;-39
2023/11/05 05:52:33;;;;;;;11.10;10.50;;;8.80;99.90;;;;;;4868723;29;20854;-38
2023/11/05 05:55:00;;;;;;;10.90;10.40;;;8.80;99.90;;;;;;4868430;29;20498;-40
2023/11/05 05:57:27;;;;;;;11.50;11.00;;;8.70;99.90;;;;;;4867668;29;20420;-41
2023/11/05 05:59:52;;;;;;;10.93;10.43;;;8.80;99.90;;;;;;4867402;29;20476;-39
2023/11/05 06:02:18;;;;;;;11.10;10.60;;;8.80;99.90;;;;;;4865662;29;20773;-39
2023/11/05 06:04:44;;;;;;;10.60;10.20;;;8.80;99.90;;;;;;4867332;29;20271;-40
2023/11/05 06:07:09;;;;;;;11.00;10.50;;;8.90;93.40;;;;;;4867793;29;20192;-43
2023/11/05 06:09:35;;;;;;;11.17;10.37;;;8.90;15.10;;;;;;4868057;29;20200;-39
2023/11/05 06:12:01;;;;;;;11.20;10.70;;;9.00;1.00;;;;;;4867738;29;20188;-40
2023/11/05 06:14:26;;;;;;;10.70;10.20;;;9.00;1.00;;;;;;4851037;29;20230;-40
2023/11/05 06:16:52;;;;;;;10.37;9.87;;;9.00;1.00;;;;;;4866256;29;20528;-39
2023/11/05 06:19:18;;;;;;;10.90;10.40;;;9.00;1.00;;;;;;4865374;29;20219;-39
2023/11/05 06:21:46;;;;;;;11.00;10.50;;;9.10;1.00;;;;;;4866843;29;20939;-40
2023/11/05 06:24:12;;;;;;;12.03;11.33;;;9.10;99.90;;;;;;4867113;29;20191;-39
2023/11/05 06:26:39;;;;;;;10.67;10.17;;;9.10;99.90;;;;;;4867147;29;20452;-39
2023/11/05 06:29:05;;;;;;;11.47;10.97;;;9.20;99.90;;;;;;4867120;29;20615;-41
2023/11/05 06:31:31;;;;;;;11.13;10.63;;;9.20;1.00;;;;;;4867902;29;20503;-39
2023/11/05 06:33:56;;;;;;;10.37;9.87;;;9.20;1.00;;;;;;4867389;29;20254;-39
2023/11/05 06:36:22;;;;;;;10.30;9.80;;;9.20;1.00;;;;;;4867686;29;20323;-38
2023/11/05 06:38:48;;;;;;;10.93;10.43;;;9.20;1.00;;;;;;4867881;29;20198;-40
2023/11/05 06:41:13;;;;;;;11.03;10.53;;;9.20;1.00;;;;;;4866638;29;20302;-40
2023/11/05 06:43:39;;;;;;;10.80;10.30;;;9.20;99.90;;;;;;4867731;29;20196;-42
2023/11/05 06:46:05;;;;;;;10.67;10.17;;;9.20;1.00;;;;;;4866560;29;20233;-41
2023/11/05 06:48:32;;;;;;;10.93;10.43;;;9.30;1.00;;;;;;4866173;29;20200;-40
2023/11/05 06:50:58;;;;;;;10.40;9.90;;;9.20;99.90;;;;;;4866734;29;20633;-38
2023/11/05 06:53:23;;;;;;;10.13;9.63;;;9.30;1.00;;;;;;4867073;29;20480;-41
2023/11/05 06:55:49;;;;;;;10.80;10.30;;;9.30;1.00;;;;;;4867220;29;20192;-40
2023/11/05 06:58:17;;;;;;;9.97;9.57;;;9.30;1.00;;;;;;4867555;29;20217;-39
2023/11/05 07:00:44;;;;;;;10.30;9.90;;;9.30;1.00;;;;;;4849684;29;20267;-38
2023/11/05 07:03:10;;;;;;;10.20;9.70;;;9.40;99.90;;;;;;4867871;29;20906;-39
2023/11/05 07:05:36;;;;;;;10.17;9.73;;;9.40;99.90;;;;;;4866610;29;20979;-41
2023/11/05 07:08:05;;;;;;;9.80;9.40;;;9.50;99.90;;;;;;4865760;29;20452;-38
2023/11/05 07:10:31;;;;;;;10.20;9.80;;;9.60;1.00;;;;;;4865637;29;20203;-39
2023/11/05 07:12:56;;;;;;;10.60;10.10;;;9.70;1.00;;;;;;4866743;29;20480;-39
2023/11/05 07:15:24;;;;;;;10.43;10.00;;;9.80;1.00;;;;;;4866031;29;20188;-40
2023/11/05 07:17:50;;;;;;;10.30;9.90;;;9.90;1.00;;;;;;4865473;29;20571;-40
2023/11/05 07:20:16;;;;;;;10.40;9.70;;;10.00;99.90;;;;;;4866528;29;20437;-39
2023/11/05 07:22:46;;;;;;;10.63;10.03;;;10.10;56.70;;;;;;4864046;29;20440;-39
2023/11/05 07:25:12;;;;;;;10.53;10.10;;;10.20;1.00;;;;;;4865489;29;20420;-38
2023/11/05 07:27:38;;;;;;;10.17;9.70;;;10.30;99.90;;;;;;4864804;29;20496;-39
2023/11/05 07:30:05;;;;;;;9.70;9.30;;;10.40;99.90;;;;;;4863839;29;20184;-39
2023/11/05 07:32:31;;;;;;;10.33;9.93;;;10.40;99.90;;;;;;4863506;29;20494;-40
2023/11/05 07:34:57;;;;;;;10.43;9.93;;;10.50;99.90;;;;;;4866230;29;20479;-39
2023/11/05 07:37:34;;;;;;;10.20;9.80;;;10.50;1.00;;;;;;4866029;29;20180;-40
2023/11/05 07:40:00;;;;;;;10.07;9.57;;;10.60;1.00;;;;;;4864590;29;20484;-38
2023/11/05 07:42:26;;;;;;;10.10;9.60;;;10.60;1.00;;;;;;4865736;29;20543;-38
2023/11/05 07:44:51;;;;;;;10.23;9.73;;;10.70;1.00;;;;;;4862601;29;20202;-40
2023/11/05 07:47:17;;;;;;;10.30;9.90;;;10.60;1.00;;;;;;4865078;29;20710;-50
2023/11/05 07:49:42;;;;;;;10.27;9.77;;;10.60;1.00;;;;;;4865303;29;20195;-51
2023/11/05 07:52:08;;;;;;;10.50;10.10;;;10.70;1.00;;;;;;4865718;29;20195;-51
2023/11/05 07:54:34;;;;;;;9.40;8.90;;;10.70;1.00;;;;;;4865211;29;20226;-50
2023/11/05 07:57:00;;;;;;;10.90;10.30;;;10.80;1.00;;;;;;4865536;29;20809;-39
2023/11/05 07:59:26;;;;;;;10.37;9.87;;;10.80;1.00;;;;;;4866558;29;20287;-39
2023/11/05 08:01:52;;;;;;;10.53;9.97;;;10.80;99.90;;;;;;4865093;29;20188;-40
2023/11/05 08:04:19;;;;;;;9.67;9.27;;;10.90;99.90;;;;;;4864609;29;20459;-40
2023/11/05 08:06:45;;;;;;;10.50;10.00;;;11.00;99.90;;;;;;4867014;29;20180;-37
2023/11/05 08:09:11;;;;;;;9.90;9.40;;;11.10;99.90;;;;;;4865749;29;20968;-40
2023/11/05 08:11:36;;;;;;;10.50;10.00;;;11.20;99.90;;;;;;4865102;29;21357;-49
2023/11/05 08:14:03;;;;;;;10.63;10.13;;;11.30;99.90;;;;;;4865121;29;20208;-52
2023/11/05 08:16:29;;;;;;;10.90;10.40;;;11.50;99.90;;;;;;4845180;29;20188;-50
2023/11/05 08:18:55;;;;;;;10.93;10.43;;;11.60;99.90;;;;;;4859570;29;20451;-48
2023/11/05 08:21:21;;;;;;;10.40;9.90;;;11.60;86.00;;;;;;4864448;29;20957;-41
2023/11/05 08:23:47;;;;;;;11.43;10.93;;;11.70;6.70;;;;;;4865936;29;20207;-39
2023/11/05 08:26:13;;;;;;;9.83;9.43;;;11.80;1.00;;;;;;4866770;29;21163;-41
2023/11/05 08:28:38;;;;;;;10.80;10.30;;;11.80;1.00;;;;;;4868213;29;20479;-39
2023/11/05 08:31:06;;;;;;;10.27;9.67;;;11.90;1.00;;;;;;4859869;29;20836;-40
2023/11/05 08:33:32;;;;;;;10.17;9.77;;;12.00;1.00;;;;;;4857581;29;20780;-40
2023/11/05 08:35:58;;;;;;;10.10;9.70;;;12.00;1.00;;;;;;4868885;29;20522;-39
2023/11/05 08:38:23;;;;;;;10.87;10.27;;;12.10;1.00;;;;;;4866374;29;20192;-41
2023/11/05 08:40:49;;;;;;;9.60;9.20;;;12.20;1.00;;;;;;4849080;29;20194;-39
2023/11/05 08:43:15;;;;;;;9.90;9.40;;;12.40;1.00;;;;;;4868078;29;20278;-39
2023/11/05 08:45:41;;;;;;;9.57;9.17;;;12.50;1.00;;;;;;4866297;29;20286;-41
2023/11/05 08:48:08;;;;;;;9.80;9.40;;;12.60;1.00;;;;;;4840598;29;20199;-41
2023/11/05 08:50:33;;;;;;;9.40;9.00;;;12.80;1.00;;;;;;4867514;29;20479;-39
2023/11/05 08:52:59;;;;;;;9.13;8.83;;;13.00;1.00;;;;;;4865210;29;21121;-39
2023/11/05 08:55:28;;;;;;;9.60;9.20;;;13.10;1.00;;;;;;4863768;29;20200;-42
2023/11/05 08:58:01;;;;;;;10.00;9.50;;;13.10;1.00;;;;;;4845201;29;20707;-43
2023/11/05 09:00:30;;;;;;;9.40;9.00;;;13.00;1.00;;;;;;4848993;29;20483;-42
2023/11/05 09:02:56;;;;;;;9.23;8.90;;;13.20;1.00;;;;;;4867669;29;20444;-43
2023/11/05 09:05:22;;;;;;;9.90;9.50;;;13.40;1.00;;;;;;4850689;29;20428;-39
2023/11/05 09:07:49;;;;;;;9.50;9.10;;;13.40;1.00;;;;;;4867552;29;20444;-40
2023/11/05 09:10:15;;;;;;;9.70;8.97;;;13.60;1.00;;;;;;4868406;29;20435;-39
2023/11/05 09:12:41;;;;;;;9.57;9.17;;;13.70;1.00;;;;;;4866451;29;20452;-39
2023/11/05 09:15:07;;;;;;;9.30;8.90;;;13.80;1.00;;;;;;4868017;29;20191;-41
2023/11/05 09:17:33;;;;;;;9.90;9.50;;;13.80;1.00;;;;;;4867821;29;20194;-39
2023/11/05 09:19:58;;;;;;;9.40;8.93;;;13.90;1.00;;;;;;4868232;29;20417;-39
2023/11/05 09:22:24;;;;;;;9.27;8.87;;;14.10;1.00;;;;;;4868027;29;20256;-39
2023/11/05 09:24:50;;;;;;;9.10;8.70;;;14.20;1.00;;;;;;4866302;29;20247;-40
2023/11/05 09:27:15;;;;;;;9.47;8.97;;;14.40;1.00;;;;;;4868413;29;20291;-40
2023/11/05 09:29:41;;;;;;;9.83;9.23;;;14.70;1.00;;;;;;4868637;29;20255;-39
2023/11/05 09:32:08;;;;;;;9.50;9.10;;;14.90;1.00;;;;;;4868103;29;20191;-40
2023/11/05 09:34:35;;;;;;;8.60;8.30;;;15.00;1.00;;;;;;4865768;29;20239;-39
2023/11/05 09:37:00;;;;;;;9.30;8.80;;;15.30;1.00;;;;;;4867506;29;20428;-40
2023/11/05 09:39:26;;;;;;;8.80;8.43;;;15.60;99.90;;;;;;4868586;29;20420;-39
2023/11/05 09:41:52;;;;;;;8.83;8.53;;;15.90;99.90;;;;;;4865731;29;20188;-40
2023/11/05 09:44:21;;;;;;;9.00;8.70;;;15.80;99.90;;;;;;4867758;29;20188;-39
2023/11/05 09:46:50;;;;;;;9.60;9.20;;;15.90;99.90;;;;;;4867369;29;20184;-39
2023/11/05 09:49:16;;;;;;;9.00;8.70;;;16.10;99.90;;;;;;4866527;29;20807;-39
2023/11/05 09:51:48;;;;;;;8.97;8.57;;;16.00;99.90;;;;;;4867049;29;20436;-39
2023/11/05 09:54:14;;;;;;;8.87;8.57;;;15.70;99.90;;;;;;4867578;29;20825;-39
2023/11/05 09:56:41;;;;;;;10.00;9.50;;;15.60;99.90;;;;;;4866564;29;20515;-39
2023/11/05 09:59:06;;;;;;;10.00;9.50;;;15.60;99.90;;;;;;4866729;29;20448;-39
2023/11/05 10:01:35;;;;;;;9.90;9.50;;;15.30;99.90;;;;;;4867034;29;20458;-38
2023/11/05 10:04:04;;;;;;;10.00;9.50;;;15.30;99.90;;;;;;4867229;29;20548;-39
2023/11/05 10:06:31;;;;;;;9.30;9.00;;;15.20;99.90;;;;;;4866946;29;20459;-40
2023/11/05 10:08:57;;;;;;;9.47;9.07;;;15.20;99.90;;;;;;4868176;29;20429;-41
2023/11/05 10:11:24;;;;;;;9.83;9.47;;;15.10;99.90;;;;;;4865888;29;20508;-39
2023/11/05 10:13:50;;;;;;;9.80;9.30;;;15.10;99.90;;;;;;4865802;29;20716;-40
2023/11/05 10:16:18;;;;;;;9.40;9.00;;;15.10;99.90;;;;;;4845539;29;20440;-37
2023/11/05 10:18:44;;;;;;;10.33;9.83;;;15.50;99.90;;;;;;4867079;29;20523;-39
2023/11/05 10:21:11;;;;;;;10.00;9.60;;;16.10;99.90;;;;;;4867448;29;20444;-39
2023/11/05 10:23:51;;;;;;;9.93;9.53;;;16.40;99.90;;;;;;4866604;29;20451;-40
2023/11/05 10:26:29;;;;;;;9.67;9.17;;;16.60;99.90;;;;;;4862919;29;20455;-39
2023/11/05 10:28:56;;;;;;;9.47;9.10;;;16.30;99.90;;;;;;4866636;29;20452;-42
2023/11/05 10:31:24;;;;;;;10.23;9.73;;;15.90;99.90;;;;;;4864524;29;20455;-40
2023/11/05 10:33:54;;;;;;;9.60;9.20;;;15.80;99.90;;;;;;4865884;29;20476;-39
2023/11/05 10:36:20;;;;;;;9.73;9.23;;;15.80;99.90;;;;;;4866762;29;20440;-38
2023/11/05 10:38:48;;;;;;;10.20;9.80;;;15.50;99.90;;;;;;4866727;29;20444;-39
2023/11/05 10:41:17;;;;;;;9.60;9.30;;;15.40;99.90;;;;;;4866484;29;20432;-41
2023/11/05 10:43:47;;;;;;;8.50;8.20;;;15.40;99.90;;;;;;4865251;29;20452;-40
2023/11/05 10:46:20;;;;;;;9.40;9.00;;;15.50;99.90;;;;;;4865146;29;21364;-39
2023/11/05 10:48:52;;;;;;;9.93;9.53;;;15.20;99.90;;;;;;4866341;29;20582;-40
2023/11/05 10:51:21;;;;;;;10.07;9.67;;;15.20;99.90;;;;;;4864779;29;20444;-39
2023/11/05 10:53:48;;;;;;;9.10;8.80;;;15.30;99.90;;;;;;4867011;29;20472;-39
2023/11/05 10:56:33;;;;;;;9.87;9.50;;;15.20;99.90;;;;;;4866164;29;20444;-41
2023/11/05 10:59:02;;;;;;;10.20;9.80;;;15.30;99.90;;;;;;4866038;29;20436;-39
2023/11/05 11:01:30;;;;;;;9.10;8.80;;;15.30;99.90;;;;;;4866257;29;20437;-38
2023/11/05 11:04:17;;;;;;;10.10;9.70;;;15.10;99.90;;;;;;4849043;29;20796;-38
2023/11/05 11:06:44;;;;;;;10.10;9.70;;;15.00;99.90;;;;;;4866845;29;20439;-46
2023/11/05 11:09:19;;;;;;;9.57;9.17;;;15.10;99.90;;;;;;4866362;29;20452;-46
2023/11/05 11:11:45;;;;;;;9.20;8.80;;;15.00;99.90;;;;;;4865682;29;20446;-49
2023/11/05 11:14:11;;;;;;;9.90;9.50;;;15.00;99.90;;;;;;4865506;29;20480;-44
2023/11/05 11:16:40;;;;;;;9.60;9.30;;;14.90;99.90;;;;;;4865903;29;20451;-48
2023/11/05 11:19:18;;;;;;;10.50;10.10;;;15.10;99.90;;;;;;4865028;29;20448;-45
2023/11/05 11:21:46;;;;;;;9.17;8.80;;;15.10;99.90;;;;;;4866667;29;20531;-46
2023/11/05 11:24:33;;;;;;;10.00;9.60;;;15.10;99.90;;;;;;4866784;29;21009;-50
2023/11/05 11:27:00;;;;;;;9.93;9.43;;;15.10;99.90;;;;;;4866539;29;20432;-46
2023/11/05 11:29:26;;;;;;;9.00;8.70;;;15.20;99.90;;;;;;4864929;29;20451;-47
2023/11/05 11:31:53;;;;;;;9.50;9.20;;;15.20;99.90;;;;;;4865243;29;20871;-49
2023/11/05 11:34:20;;;;;;;9.60;9.20;;;15.40;99.90;;;;;;4865490;29;20997;-50
2023/11/05 11:36:57;;;;;;;9.83;9.43;;;15.60;99.90;;;;;;4866795;29;20484;-47
2023/11/05 11:39:23;;;;;;;9.77;9.37;;;15.70;99.90;;;;;;4865551;29;20440;-47
2023/11/05 11:41:49;;;;;;;9.30;9.00;;;15.80;99.90;;;;;;4864720;29;20480;-49
2023/11/05 11:44:15;;;;;;;10.20;9.80;;;15.90;99.90;;;;;;4866088;29;20187;-44
2023/11/05 11:46:41;;;;;;;9.40;8.90;;;15.90;99.90;;;;;;4865774;29;20448;-46
2023/11/05 11:49:11;;;;;;;10.20;9.70;;;15.90;99.90;;;;;;4865150;29;20463;-47
2023/11/05 11:51:40;;;;;;;10.50;10.00;;;16.00;99.90;;;;;;4865806;29;20283;-45
2023/11/05 11:54:09;;;;;;;9.90;9.50;;;15.90;99.90;;;;;;4863478;29;20479;-49
2023/11/05 11:56:35;;;;;;;9.93;9.53;;;15.90;99.90;;;;;;4865373;29;20448;-52
2023/11/05 11:59:05;;;;;;;9.17;8.87;;;15.60;99.90;;;;;;4869535;29;20424;-41
2023/11/05 12:01:31;;;;;;;9.70;9.30;;;15.40;99.90;;;;;;4868097;29;20443;-48
2023/11/05 12:03:58;;;;;;;9.60;9.30;;;15.30;99.90;;;;;;4868692;29;20448;-51
2023/11/05 12:06:25;;;;;;;9.80;9.40;;;15.30;99.90;;;;;;4868854;29;20482;-49
2023/11/05 12:08:52;;;;;;;9.17;8.77;;;15.20;99.90;;;;;;4869953;29;20424;-46
2023/11/05 12:11:18;;;;;;;9.73;9.23;;;15.20;99.90;;;;;;4870249;29;20431;-51
2023/11/05 12:13:46;;;;;;;9.93;9.53;;;15.20;99.90;;;;;;4868853;29;20478;-47
2023/11/05 12:16:14;;;;;;;9.00;8.70;;;15.10;99.90;;;;;;4869185;29;20474;-47
2023/11/05 12:18:41;;;;;;;9.33;8.87;;;15.10;99.90;;;;;;4867885;29;20501;-47
2023/11/05 12:21:11;;;;;;;9.50;9.10;;;15.00;99.90;;;;;;4869527;29;20432;-49
2023/11/05 12:23:37;;;;;;;9.77;9.40;;;14.90;99.90;;;;;;4868871;29;20459;-45
2023/11/05 12:26:05;;;;;;;9.77;9.37;;;14.80;99.90;;;;;;4867212;29;20452;-45
2023/11/05 12:28:31;;;;;;;9.57;9.20;;;14.70;99.90;;;;;;4868680;29;20436;-46
2023/11/05 12:31:03;;;;;;;10.20;9.80;;;14.50;99.90;;;;;;4869359;29;20461;-44
2023/11/05 12:33:35;;;;;;;10.93;10.43;;;14.00;99.90;;;;;;4866258;29;20467;-48
2023/11/05 12:36:01;;;;;;;10.60;10.13;;;13.70;1.00;;;;;;4867923;29;20448;-45
2023/11/05 12:38:27;;;;;;;11.40;11.00;;;13.50;1.00;;;;;;4850333;29;20795;-46